sensor_id;sensor_type;location;lat;lon;timestamp;P1;durP1;ratioP1;P2;durP2;ratioP2
4182;SDS011;2105;52.300;9.182;2022-12-07T00:01:08;29.97;;;21.07;;
4182;SDS011;2105;52.300;9.182;2022-12-07T00:03:36;31.20;;;22.50;;
4182;SDS011;2105;52.300;9.182;2022-12-07T00:06:05;30.73;;;22.00;;
4182;SDS011;2105;52.300;9.182;2022-12-07T00:08:35;33.80;;;22.73;;
4182;SDS011;2105;52.300;9.182;2022-12-07T00:11:02;33.30;;;22.00;;
4182;SDS011;2105;52.300;9.182;2022-12-07T00:13:30;35.70;;;22.93;;
4182;SDS011;2105;52.300;9.182;2022-12-07T00:15:59;33.87;;;23.73;;
4182;SDS011;2105;52.300;9.182;2022-12-07T00:18:27;34.93;;;22.87;;
4182;SDS011;2105;52.300;9.182;2022-12-07T00:20:58;30.53;;;23.03;;
4182;SDS011;2105;52.300;9.182;2022-12-07T00:23:28;37.03;;;24.13;;
4182;SDS011;2105;52.300;9.182;2022-12-07T00:26:02;41.13;;;24.43;;
4182;SDS011;2105;52.300;9.182;2022-12-07T00:28:29;32.70;;;23.67;;
4182;SDS011;2105;52.300;9.182;2022-12-07T00:30:59;35.57;;;24.97;;
4182;SDS011;2105;52.300;9.182;2022-12-07T00:33:27;38.50;;;24.67;;
4182;SDS011;2105;52.300;9.182;2022-12-07T00:35:54;38.13;;;24.53;;
4182;SDS011;2105;52.300;9.182;2022-12-07T00:38:22;35.90;;;24.83;;
4182;SDS011;2105;52.300;9.182;2022-12-07T00:40:53;43.50;;;27.87;;
4182;SDS011;2105;52.300;9.182;2022-12-07T00:43:22;39.17;;;24.90;;
4182;SDS011;2105;52.300;9.182;2022-12-07T00:45:49;43.37;;;26.17;;
4182;SDS011;2105;52.300;9.182;2022-12-07T00:48:16;37.87;;;25.10;;
4182;SDS011;2105;52.300;9.182;2022-12-07T00:50:43;42.07;;;26.10;;
4182;SDS011;2105;52.300;9.182;2022-12-07T00:53:10;38.33;;;25.90;;
4182;SDS011;2105;52.300;9.182;2022-12-07T00:55:37;35.93;;;25.30;;
4182;SDS011;2105;52.300;9.182;2022-12-07T00:58:04;35.90;;;24.37;;
4182;SDS011;2105;52.300;9.182;2022-12-07T01:00:32;32.90;;;23.30;;
4182;SDS011;2105;52.300;9.182;2022-12-07T01:02:59;35.23;;;23.10;;
4182;SDS011;2105;52.300;9.182;2022-12-07T01:05:26;36.70;;;24.33;;
4182;SDS011;2105;52.300;9.182;2022-12-07T01:07:56;37.20;;;25.83;;
4182;SDS011;2105;52.300;9.182;2022-12-07T01:10:25;34.30;;;25.30;;
4182;SDS011;2105;52.300;9.182;2022-12-07T01:13:11;34.03;;;23.63;;
4182;SDS011;2105;52.300;9.182;2022-12-07T01:15:40;37.40;;;24.40;;
4182;SDS011;2105;52.300;9.182;2022-12-07T01:18:07;35.97;;;23.40;;
4182;SDS011;2105;52.300;9.182;2022-12-07T01:20:34;36.80;;;23.93;;
4182;SDS011;2105;52.300;9.182;2022-12-07T01:23:02;34.27;;;22.50;;
4182;SDS011;2105;52.300;9.182;2022-12-07T01:25:29;35.63;;;23.30;;
4182;SDS011;2105;52.300;9.182;2022-12-07T01:27:57;32.23;;;22.77;;
4182;SDS011;2105;52.300;9.182;2022-12-07T01:30:24;34.57;;;23.70;;
4182;SDS011;2105;52.300;9.182;2022-12-07T01:32:55;34.60;;;23.00;;
4182;SDS011;2105;52.300;9.182;2022-12-07T01:35:22;35.80;;;24.03;;
4182;SDS011;2105;52.300;9.182;2022-12-07T01:37:49;36.03;;;24.50;;
4182;SDS011;2105;52.300;9.182;2022-12-07T01:40:17;37.90;;;25.07;;
4182;SDS011;2105;52.300;9.182;2022-12-07T01:42:49;36.80;;;23.30;;
4182;SDS011;2105;52.300;9.182;2022-12-07T01:48:05;31.00;;;22.90;;
4182;SDS011;2105;52.300;9.182;2022-12-07T01:50:36;35.80;;;23.60;;
4182;SDS011;2105;52.300;9.182;2022-12-07T01:53:04;34.57;;;23.70;;
4182;SDS011;2105;52.300;9.182;2022-12-07T01:55:36;34.40;;;22.63;;
4182;SDS011;2105;52.300;9.182;2022-12-07T01:58:06;33.70;;;21.70;;
4182;SDS011;2105;52.300;9.182;2022-12-07T02:00:33;33.83;;;23.20;;
4182;SDS011;2105;52.300;9.182;2022-12-07T02:03:04;31.73;;;23.13;;
4182;SDS011;2105;52.300;9.182;2022-12-07T02:05:35;30.70;;;22.17;;
4182;SDS011;2105;52.300;9.182;2022-12-07T02:08:04;35.10;;;23.63;;
4182;SDS011;2105;52.300;9.182;2022-12-07T02:10:31;35.13;;;23.70;;
4182;SDS011;2105;52.300;9.182;2022-12-07T02:13:00;33.50;;;21.90;;
4182;SDS011;2105;52.300;9.182;2022-12-07T02:15:32;38.37;;;23.03;;
4182;SDS011;2105;52.300;9.182;2022-12-07T02:18:09;32.50;;;22.43;;
4182;SDS011;2105;52.300;9.182;2022-12-07T02:20:43;31.50;;;22.40;;
4182;SDS011;2105;52.300;9.182;2022-12-07T02:23:30;34.60;;;22.40;;
4182;SDS011;2105;52.300;9.182;2022-12-07T02:29:18;36.47;;;22.07;;
4182;SDS011;2105;52.300;9.182;2022-12-07T02:31:51;34.00;;;22.30;;
4182;SDS011;2105;52.300;9.182;2022-12-07T02:34:29;37.10;;;22.70;;
4182;SDS011;2105;52.300;9.182;2022-12-07T02:37:03;32.30;;;20.37;;
4182;SDS011;2105;52.300;9.182;2022-12-07T02:39:40;28.30;;;19.40;;
4182;SDS011;2105;52.300;9.182;2022-12-07T02:42:12;30.67;;;20.53;;
4182;SDS011;2105;52.300;9.182;2022-12-07T02:44:43;32.20;;;19.70;;
4182;SDS011;2105;52.300;9.182;2022-12-07T02:47:12;33.60;;;21.17;;
4182;SDS011;2105;52.300;9.182;2022-12-07T02:49:42;31.87;;;21.53;;
4182;SDS011;2105;52.300;9.182;2022-12-07T02:52:09;31.00;;;20.30;;
4182;SDS011;2105;52.300;9.182;2022-12-07T02:54:36;34.50;;;21.10;;
4182;SDS011;2105;52.300;9.182;2022-12-07T02:57:05;25.93;;;18.53;;
4182;SDS011;2105;52.300;9.182;2022-12-07T02:59:44;28.67;;;19.57;;
4182;SDS011;2105;52.300;9.182;2022-12-07T03:02:19;30.10;;;19.20;;
4182;SDS011;2105;52.300;9.182;2022-12-07T03:04:59;37.67;;;17.17;;
4182;SDS011;2105;52.300;9.182;2022-12-07T03:07:37;27.80;;;17.10;;
4182;SDS011;2105;52.300;9.182;2022-12-07T03:10:12;34.37;;;17.80;;
4182;SDS011;2105;52.300;9.182;2022-12-07T03:12:45;29.20;;;17.30;;
4182;SDS011;2105;52.300;9.182;2022-12-07T03:15:20;25.70;;;17.70;;
4182;SDS011;2105;52.300;9.182;2022-12-07T03:17:52;26.13;;;16.87;;
4182;SDS011;2105;52.300;9.182;2022-12-07T03:20:22;30.90;;;17.37;;
4182;SDS011;2105;52.300;9.182;2022-12-07T03:22:52;28.03;;;16.90;;
4182;SDS011;2105;52.300;9.182;2022-12-07T03:25:20;27.80;;;17.53;;
4182;SDS011;2105;52.300;9.182;2022-12-07T03:27:49;28.00;;;17.47;;
4182;SDS011;2105;52.300;9.182;2022-12-07T03:30:22;29.37;;;16.80;;
4182;SDS011;2105;52.300;9.182;2022-12-07T03:32:54;32.77;;;16.90;;
4182;SDS011;2105;52.300;9.182;2022-12-07T03:35:27;32.47;;;17.07;;
4182;SDS011;2105;52.300;9.182;2022-12-07T03:37:59;28.37;;;17.50;;
4182;SDS011;2105;52.300;9.182;2022-12-07T03:40:32;33.20;;;16.40;;
4182;SDS011;2105;52.300;9.182;2022-12-07T03:43:03;36.50;;;18.60;;
4182;SDS011;2105;52.300;9.182;2022-12-07T03:45:33;27.67;;;16.03;;
4182;SDS011;2105;52.300;9.182;2022-12-07T03:48:07;25.33;;;15.57;;
4182;SDS011;2105;52.300;9.182;2022-12-07T03:50:42;28.20;;;16.63;;
4182;SDS011;2105;52.300;9.182;2022-12-07T03:53:15;22.90;;;15.87;;
4182;SDS011;2105;52.300;9.182;2022-12-07T03:55:46;27.70;;;16.27;;
4182;SDS011;2105;52.300;9.182;2022-12-07T03:58:15;23.10;;;14.70;;
4182;SDS011;2105;52.300;9.182;2022-12-07T04:00:46;27.80;;;15.53;;
4182;SDS011;2105;52.300;9.182;2022-12-07T04:03:14;23.20;;;13.93;;
4182;SDS011;2105;52.300;9.182;2022-12-07T04:05:41;24.03;;;14.40;;
4182;SDS011;2105;52.300;9.182;2022-12-07T04:08:09;29.27;;;14.37;;
4182;SDS011;2105;52.300;9.182;2022-12-07T04:10:36;22.87;;;14.17;;
4182;SDS011;2105;52.300;9.182;2022-12-07T04:13:03;30.93;;;16.40;;
4182;SDS011;2105;52.300;9.182;2022-12-07T04:15:30;28.03;;;14.63;;
4182;SDS011;2105;52.300;9.182;2022-12-07T04:17:58;24.20;;;14.33;;
4182;SDS011;2105;52.300;9.182;2022-12-07T04:20:25;27.13;;;14.00;;
4182;SDS011;2105;52.300;9.182;2022-12-07T04:22:52;27.93;;;15.80;;
4182;SDS011;2105;52.300;9.182;2022-12-07T04:25:19;22.10;;;14.03;;
4182;SDS011;2105;52.300;9.182;2022-12-07T04:27:46;30.77;;;13.47;;
4182;SDS011;2105;52.300;9.182;2022-12-07T04:30:12;22.37;;;14.37;;
4182;SDS011;2105;52.300;9.182;2022-12-07T04:32:39;22.43;;;13.63;;
4182;SDS011;2105;52.300;9.182;2022-12-07T04:35:08;23.23;;;13.77;;
4182;SDS011;2105;52.300;9.182;2022-12-07T04:37:35;24.20;;;13.73;;
4182;SDS011;2105;52.300;9.182;2022-12-07T04:40:04;19.70;;;12.90;;
4182;SDS011;2105;52.300;9.182;2022-12-07T04:42:32;27.53;;;14.10;;
4182;SDS011;2105;52.300;9.182;2022-12-07T04:44:59;22.90;;;13.40;;
4182;SDS011;2105;52.300;9.182;2022-12-07T04:47:26;15.70;;;11.70;;
4182;SDS011;2105;52.300;9.182;2022-12-07T04:49:53;22.40;;;11.83;;
4182;SDS011;2105;52.300;9.182;2022-12-07T04:52:21;14.90;;;10.70;;
4182;SDS011;2105;52.300;9.182;2022-12-07T04:54:48;15.10;;;11.70;;
4182;SDS011;2105;52.300;9.182;2022-12-07T04:57:15;21.70;;;11.93;;
4182;SDS011;2105;52.300;9.182;2022-12-07T04:59:42;14.70;;;10.57;;
4182;SDS011;2105;52.300;9.182;2022-12-07T05:02:09;20.23;;;11.23;;
4182;SDS011;2105;52.300;9.182;2022-12-07T05:04:46;15.80;;;11.57;;
4182;SDS011;2105;52.300;9.182;2022-12-07T05:07:13;16.13;;;11.50;;
4182;SDS011;2105;52.300;9.182;2022-12-07T05:09:41;15.17;;;10.20;;
4182;SDS011;2105;52.300;9.182;2022-12-07T05:12:09;18.67;;;11.07;;
4182;SDS011;2105;52.300;9.182;2022-12-07T05:14:37;15.73;;;10.37;;
4182;SDS011;2105;52.300;9.182;2022-12-07T05:17:04;16.17;;;10.20;;
4182;SDS011;2105;52.300;9.182;2022-12-07T05:19:31;13.87;;;9.80;;
4182;SDS011;2105;52.300;9.182;2022-12-07T05:21:58;12.93;;;9.97;;
4182;SDS011;2105;52.300;9.182;2022-12-07T05:24:26;13.23;;;10.17;;
4182;SDS011;2105;52.300;9.182;2022-12-07T05:26:55;11.30;;;9.70;;
4182;SDS011;2105;52.300;9.182;2022-12-07T05:29:22;13.27;;;10.37;;
4182;SDS011;2105;52.300;9.182;2022-12-07T05:31:49;15.80;;;10.57;;
4182;SDS011;2105;52.300;9.182;2022-12-07T05:34:15;18.57;;;9.33;;
4182;SDS011;2105;52.300;9.182;2022-12-07T05:36:42;15.27;;;10.17;;
4182;SDS011;2105;52.300;9.182;2022-12-07T05:39:10;14.53;;;9.60;;
4182;SDS011;2105;52.300;9.182;2022-12-07T05:41:36;18.17;;;9.50;;
4182;SDS011;2105;52.300;9.182;2022-12-07T05:44:22;10.40;;;9.20;;
4182;SDS011;2105;52.300;9.182;2022-12-07T05:46:49;16.53;;;9.17;;
4182;SDS011;2105;52.300;9.182;2022-12-07T05:49:16;11.43;;;8.77;;
4182;SDS011;2105;52.300;9.182;2022-12-07T05:51:43;10.97;;;9.00;;
4182;SDS011;2105;52.300;9.182;2022-12-07T05:54:10;12.77;;;8.20;;
4182;SDS011;2105;52.300;9.182;2022-12-07T05:56:37;12.53;;;8.80;;
4182;SDS011;2105;52.300;9.182;2022-12-07T05:59:04;10.40;;;7.77;;
4182;SDS011;2105;52.300;9.182;2022-12-07T06:01:50;15.00;;;8.03;;
4182;SDS011;2105;52.300;9.182;2022-12-07T06:04:18;12.50;;;8.57;;
4182;SDS011;2105;52.300;9.182;2022-12-07T06:06:49;11.77;;;8.90;;
4182;SDS011;2105;52.300;9.182;2022-12-07T06:09:16;18.27;;;8.77;;
4182;SDS011;2105;52.300;9.182;2022-12-07T06:11:43;9.83;;;8.10;;
4182;SDS011;2105;52.300;9.182;2022-12-07T06:14:28;8.97;;;8.07;;
4182;SDS011;2105;52.300;9.182;2022-12-07T06:16:56;13.10;;;7.77;;
4182;SDS011;2105;52.300;9.182;2022-12-07T06:19:25;11.00;;;7.53;;
4182;SDS011;2105;52.300;9.182;2022-12-07T06:21:52;14.70;;;8.20;;
4182;SDS011;2105;52.300;9.182;2022-12-07T06:24:23;14.23;;;8.63;;
4182;SDS011;2105;52.300;9.182;2022-12-07T06:26:51;9.60;;;8.60;;
4182;SDS011;2105;52.300;9.182;2022-12-07T06:29:18;10.70;;;8.30;;
4182;SDS011;2105;52.300;9.182;2022-12-07T06:31:45;13.00;;;7.97;;
4182;SDS011;2105;52.300;9.182;2022-12-07T06:34:14;9.20;;;8.30;;
4182;SDS011;2105;52.300;9.182;2022-12-07T06:36:42;12.90;;;7.73;;
4182;SDS011;2105;52.300;9.182;2022-12-07T06:39:10;10.60;;;7.97;;
4182;SDS011;2105;52.300;9.182;2022-12-07T06:41:38;13.23;;;7.90;;
4182;SDS011;2105;52.300;9.182;2022-12-07T06:44:05;13.60;;;7.33;;
4182;SDS011;2105;52.300;9.182;2022-12-07T06:46:33;16.40;;;7.67;;
4182;SDS011;2105;52.300;9.182;2022-12-07T06:49:00;10.80;;;7.60;;
4182;SDS011;2105;52.300;9.182;2022-12-07T06:51:28;14.50;;;7.00;;
4182;SDS011;2105;52.300;9.182;2022-12-07T06:53:55;13.03;;;6.73;;
4182;SDS011;2105;52.300;9.182;2022-12-07T06:56:22;8.87;;;7.73;;
4182;SDS011;2105;52.300;9.182;2022-12-07T06:58:49;9.00;;;6.70;;
4182;SDS011;2105;52.300;9.182;2022-12-07T07:01:17;11.37;;;7.70;;
4182;SDS011;2105;52.300;9.182;2022-12-07T07:03:44;8.13;;;7.00;;
4182;SDS011;2105;52.300;9.182;2022-12-07T07:06:12;12.50;;;8.00;;
4182;SDS011;2105;52.300;9.182;2022-12-07T07:08:41;11.00;;;7.40;;
4182;SDS011;2105;52.300;9.182;2022-12-07T07:11:08;12.03;;;7.40;;
4182;SDS011;2105;52.300;9.182;2022-12-07T07:13:35;17.00;;;8.20;;
4182;SDS011;2105;52.300;9.182;2022-12-07T07:16:03;12.07;;;7.80;;
4182;SDS011;2105;52.300;9.182;2022-12-07T07:18:30;11.50;;;7.33;;
4182;SDS011;2105;52.300;9.182;2022-12-07T07:20:57;7.93;;;7.23;;
4182;SDS011;2105;52.300;9.182;2022-12-07T07:23:24;17.93;;;6.90;;
4182;SDS011;2105;52.300;9.182;2022-12-07T07:25:52;9.27;;;7.13;;
4182;SDS011;2105;52.300;9.182;2022-12-07T07:28:19;9.00;;;6.57;;
4182;SDS011;2105;52.300;9.182;2022-12-07T07:30:46;8.83;;;7.10;;
4182;SDS011;2105;52.300;9.182;2022-12-07T07:33:13;13.40;;;7.43;;
4182;SDS011;2105;52.300;9.182;2022-12-07T07:35:40;15.40;;;7.40;;
4182;SDS011;2105;52.300;9.182;2022-12-07T07:38:07;14.77;;;7.00;;
4182;SDS011;2105;52.300;9.182;2022-12-07T07:40:34;12.67;;;6.97;;
4182;SDS011;2105;52.300;9.182;2022-12-07T07:43:03;8.87;;;6.20;;
4182;SDS011;2105;52.300;9.182;2022-12-07T07:45:30;15.90;;;7.03;;
4182;SDS011;2105;52.300;9.182;2022-12-07T07:47:56;11.60;;;6.80;;
4182;SDS011;2105;52.300;9.182;2022-12-07T07:50:23;16.13;;;7.00;;
4182;SDS011;2105;52.300;9.182;2022-12-07T07:52:50;16.53;;;6.13;;
4182;SDS011;2105;52.300;9.182;2022-12-07T07:55:18;10.37;;;6.60;;
4182;SDS011;2105;52.300;9.182;2022-12-07T07:57:45;8.07;;;6.20;;
4182;SDS011;2105;52.300;9.182;2022-12-07T08:00:14;11.27;;;7.17;;
4182;SDS011;2105;52.300;9.182;2022-12-07T08:02:41;11.60;;;6.60;;
4182;SDS011;2105;52.300;9.182;2022-12-07T08:05:09;18.80;;;7.40;;
4182;SDS011;2105;52.300;9.182;2022-12-07T08:07:36;9.70;;;7.00;;
4182;SDS011;2105;52.300;9.182;2022-12-07T08:10:04;13.53;;;7.00;;
4182;SDS011;2105;52.300;9.182;2022-12-07T08:12:34;7.10;;;6.40;;
4182;SDS011;2105;52.300;9.182;2022-12-07T08:15:02;12.70;;;6.17;;
4182;SDS011;2105;52.300;9.182;2022-12-07T08:17:31;16.67;;;7.00;;
4182;SDS011;2105;52.300;9.182;2022-12-07T08:19:58;10.77;;;6.93;;
4182;SDS011;2105;52.300;9.182;2022-12-07T08:22:25;12.40;;;6.73;;
4182;SDS011;2105;52.300;9.182;2022-12-07T08:24:52;8.10;;;5.97;;
4182;SDS011;2105;52.300;9.182;2022-12-07T08:27:19;9.43;;;6.07;;
4182;SDS011;2105;52.300;9.182;2022-12-07T08:29:48;8.33;;;6.63;;
4182;SDS011;2105;52.300;9.182;2022-12-07T08:32:15;7.33;;;6.07;;
4182;SDS011;2105;52.300;9.182;2022-12-07T08:34:43;8.80;;;7.17;;
4182;SDS011;2105;52.300;9.182;2022-12-07T08:37:10;11.00;;;6.57;;
4182;SDS011;2105;52.300;9.182;2022-12-07T08:39:37;13.47;;;7.30;;
4182;SDS011;2105;52.300;9.182;2022-12-07T08:42:04;14.40;;;6.70;;
4182;SDS011;2105;52.300;9.182;2022-12-07T08:44:31;9.47;;;6.57;;
4182;SDS011;2105;52.300;9.182;2022-12-07T08:46:58;6.70;;;6.00;;
4182;SDS011;2105;52.300;9.182;2022-12-07T08:49:34;14.20;;;6.20;;
4182;SDS011;2105;52.300;9.182;2022-12-07T08:52:14;13.30;;;6.13;;
4182;SDS011;2105;52.300;9.182;2022-12-07T08:57:11;12.07;;;6.10;;
4182;SDS011;2105;52.300;9.182;2022-12-07T08:59:38;13.93;;;5.73;;
4182;SDS011;2105;52.300;9.182;2022-12-07T09:02:05;13.43;;;6.30;;
4182;SDS011;2105;52.300;9.182;2022-12-07T09:04:32;9.70;;;5.77;;
4182;SDS011;2105;52.300;9.182;2022-12-07T09:06:59;18.50;;;6.13;;
4182;SDS011;2105;52.300;9.182;2022-12-07T09:09:27;6.10;;;5.50;;
4182;SDS011;2105;52.300;9.182;2022-12-07T09:11:54;9.00;;;6.03;;
4182;SDS011;2105;52.300;9.182;2022-12-07T09:14:23;14.80;;;6.67;;
4182;SDS011;2105;52.300;9.182;2022-12-07T09:16:50;8.90;;;5.80;;
4182;SDS011;2105;52.300;9.182;2022-12-07T09:19:17;10.60;;;6.73;;
4182;SDS011;2105;52.300;9.182;2022-12-07T09:21:44;7.53;;;6.10;;
4182;SDS011;2105;52.300;9.182;2022-12-07T09:24:16;8.77;;;6.40;;
4182;SDS011;2105;52.300;9.182;2022-12-07T09:26:55;10.63;;;6.90;;
4182;SDS011;2105;52.300;9.182;2022-12-07T09:29:31;11.87;;;6.23;;
4182;SDS011;2105;52.300;9.182;2022-12-07T09:32:00;15.33;;;6.47;;
4182;SDS011;2105;52.300;9.182;2022-12-07T09:34:30;12.17;;;6.07;;
4182;SDS011;2105;52.300;9.182;2022-12-07T09:37:02;12.80;;;6.87;;
4182;SDS011;2105;52.300;9.182;2022-12-07T09:39:29;23.93;;;6.60;;
4182;SDS011;2105;52.300;9.182;2022-12-07T09:41:58;8.83;;;6.20;;
4182;SDS011;2105;52.300;9.182;2022-12-07T09:44:28;6.83;;;5.77;;
4182;SDS011;2105;52.300;9.182;2022-12-07T09:46:56;10.30;;;5.67;;
4182;SDS011;2105;52.300;9.182;2022-12-07T09:49:27;7.83;;;6.27;;
4182;SDS011;2105;52.300;9.182;2022-12-07T09:52:00;22.80;;;5.93;;
4182;SDS011;2105;52.300;9.182;2022-12-07T09:54:45;14.10;;;6.30;;
4182;SDS011;2105;52.300;9.182;2022-12-07T09:57:21;16.03;;;6.40;;
4182;SDS011;2105;52.300;9.182;2022-12-07T09:59:56;11.43;;;7.20;;
4182;SDS011;2105;52.300;9.182;2022-12-07T10:02:32;11.07;;;6.30;;
4182;SDS011;2105;52.300;9.182;2022-12-07T10:05:04;12.07;;;7.20;;
4182;SDS011;2105;52.300;9.182;2022-12-07T10:07:33;9.50;;;7.00;;
4182;SDS011;2105;52.300;9.182;2022-12-07T10:10:02;15.30;;;5.83;;
4182;SDS011;2105;52.300;9.182;2022-12-07T10:15:51;15.77;;;6.67;;
4182;SDS011;2105;52.300;9.182;2022-12-07T10:18:27;16.20;;;6.67;;
4182;SDS011;2105;52.300;9.182;2022-12-07T10:21:00;8.20;;;6.90;;
4182;SDS011;2105;52.300;9.182;2022-12-07T10:23:32;11.60;;;7.23;;
4182;SDS011;2105;52.300;9.182;2022-12-07T10:28:53;14.10;;;7.90;;
4182;SDS011;2105;52.300;9.182;2022-12-07T10:31:23;12.30;;;7.97;;
4182;SDS011;2105;52.300;9.182;2022-12-07T10:33:51;9.90;;;8.10;;
4182;SDS011;2105;52.300;9.182;2022-12-07T10:36:21;8.13;;;7.20;;
4182;SDS011;2105;52.300;9.182;2022-12-07T10:38:51;21.93;;;8.40;;
4182;SDS011;2105;52.300;9.182;2022-12-07T10:41:19;11.67;;;7.77;;
4182;SDS011;2105;52.300;9.182;2022-12-07T10:43:48;9.70;;;8.10;;
4182;SDS011;2105;52.300;9.182;2022-12-07T10:46:28;11.60;;;8.23;;
4182;SDS011;2105;52.300;9.182;2022-12-07T10:49:14;15.97;;;8.10;;
4182;SDS011;2105;52.300;9.182;2022-12-07T10:51:59;9.03;;;8.10;;
4182;SDS011;2105;52.300;9.182;2022-12-07T10:54:38;15.30;;;8.50;;
4182;SDS011;2105;52.300;9.182;2022-12-07T10:57:16;15.10;;;8.50;;
4182;SDS011;2105;52.300;9.182;2022-12-07T10:59:58;17.37;;;8.20;;
4182;SDS011;2105;52.300;9.182;2022-12-07T11:02:36;10.50;;;7.80;;
4182;SDS011;2105;52.300;9.182;2022-12-07T11:05:21;13.73;;;8.30;;
4182;SDS011;2105;52.300;9.182;2022-12-07T11:08:52;11.63;;;7.90;;
4182;SDS011;2105;52.300;9.182;2022-12-07T11:10:59;9.80;;;8.23;;
4182;SDS011;2105;52.300;9.182;2022-12-07T11:13:35;13.97;;;8.27;;
4182;SDS011;2105;52.300;9.182;2022-12-07T11:16:32;9.20;;;8.30;;
4182;SDS011;2105;52.300;9.182;2022-12-07T11:19:23;13.60;;;8.27;;
4182;SDS011;2105;52.300;9.182;2022-12-07T11:22:06;17.03;;;9.23;;
4182;SDS011;2105;52.300;9.182;2022-12-07T11:24:40;15.80;;;8.70;;
4182;SDS011;2105;52.300;9.182;2022-12-07T11:27:18;9.47;;;8.57;;
4182;SDS011;2105;52.300;9.182;2022-12-07T11:29:53;16.80;;;8.80;;
4182;SDS011;2105;52.300;9.182;2022-12-07T11:32:45;11.67;;;8.73;;
4182;SDS011;2105;52.300;9.182;2022-12-07T11:35:24;13.67;;;8.83;;
4182;SDS011;2105;52.300;9.182;2022-12-07T11:38:01;15.80;;;8.70;;
4182;SDS011;2105;52.300;9.182;2022-12-07T11:40:34;13.10;;;9.40;;
4182;SDS011;2105;52.300;9.182;2022-12-07T11:43:04;12.20;;;8.70;;
4182;SDS011;2105;52.300;9.182;2022-12-07T11:45:37;11.57;;;8.63;;
4182;SDS011;2105;52.300;9.182;2022-12-07T11:48:10;10.13;;;8.80;;
4182;SDS011;2105;52.300;9.182;2022-12-07T11:50:48;14.30;;;8.97;;
4182;SDS011;2105;52.300;9.182;2022-12-07T11:53:38;19.63;;;9.50;;
4182;SDS011;2105;52.300;9.182;2022-12-07T11:56:11;13.30;;;9.40;;
4182;SDS011;2105;52.300;9.182;2022-12-07T11:58:44;11.90;;;9.53;;
4182;SDS011;2105;52.300;9.182;2022-12-07T12:01:18;15.87;;;9.73;;
4182;SDS011;2105;52.300;9.182;2022-12-07T12:04:10;12.53;;;9.20;;
4182;SDS011;2105;52.300;9.182;2022-12-07T12:06:54;16.13;;;9.13;;
4182;SDS011;2105;52.300;9.182;2022-12-07T12:09:21;13.30;;;9.07;;
4182;SDS011;2105;52.300;9.182;2022-12-07T12:11:58;16.20;;;9.30;;
4182;SDS011;2105;52.300;9.182;2022-12-07T12:14:43;15.70;;;8.80;;
4182;SDS011;2105;52.300;9.182;2022-12-07T12:17:29;14.10;;;8.90;;
4182;SDS011;2105;52.300;9.182;2022-12-07T12:20:15;18.23;;;9.67;;
4182;SDS011;2105;52.300;9.182;2022-12-07T12:22:50;15.87;;;8.73;;
4182;SDS011;2105;52.300;9.182;2022-12-07T12:25:21;18.57;;;8.43;;
4182;SDS011;2105;52.300;9.182;2022-12-07T12:27:51;10.37;;;9.30;;
4182;SDS011;2105;52.300;9.182;2022-12-07T12:33:12;11.90;;;10.00;;
4182;SDS011;2105;52.300;9.182;2022-12-07T12:35:41;25.67;;;9.97;;
4182;SDS011;2105;52.300;9.182;2022-12-07T12:38:26;19.17;;;9.40;;
4182;SDS011;2105;52.300;9.182;2022-12-07T12:40:58;9.57;;;8.70;;
4182;SDS011;2105;52.300;9.182;2022-12-07T12:55:23;14.03;;;9.40;;
4182;SDS011;2105;52.300;9.182;2022-12-07T13:04:00;26.27;;;10.00;;
4182;SDS011;2105;52.300;9.182;2022-12-07T13:06:33;13.43;;;10.00;;
4182;SDS011;2105;52.300;9.182;2022-12-07T13:09:15;11.87;;;10.40;;
4182;SDS011;2105;52.300;9.182;2022-12-07T13:11:47;10.90;;;9.90;;
4182;SDS011;2105;52.300;9.182;2022-12-07T13:17:07;11.67;;;10.10;;
4182;SDS011;2105;52.300;9.182;2022-12-07T13:22:34;13.30;;;10.00;;
4182;SDS011;2105;52.300;9.182;2022-12-07T13:25:12;16.83;;;9.97;;
4182;SDS011;2105;52.300;9.182;2022-12-07T13:27:48;13.33;;;9.80;;
4182;SDS011;2105;52.300;9.182;2022-12-07T13:30:22;13.23;;;10.77;;
4182;SDS011;2105;52.300;9.182;2022-12-07T13:32:53;16.10;;;10.57;;
4182;SDS011;2105;52.300;9.182;2022-12-07T13:35:33;15.47;;;10.60;;
4182;SDS011;2105;52.300;9.182;2022-12-07T13:38:04;11.43;;;10.50;;
4182;SDS011;2105;52.300;9.182;2022-12-07T13:40:43;11.77;;;10.57;;
4182;SDS011;2105;52.300;9.182;2022-12-07T13:43:28;12.93;;;10.47;;
4182;SDS011;2105;52.300;9.182;2022-12-07T13:45:55;16.27;;;10.07;;
4182;SDS011;2105;52.300;9.182;2022-12-07T13:48:27;13.90;;;11.30;;
4182;SDS011;2105;52.300;9.182;2022-12-07T13:50:58;11.90;;;10.73;;
4182;SDS011;2105;52.300;9.182;2022-12-07T13:53:27;11.50;;;10.50;;
4182;SDS011;2105;52.300;9.182;2022-12-07T13:56:00;18.00;;;10.50;;
4182;SDS011;2105;52.300;9.182;2022-12-07T13:58:41;16.53;;;11.00;;
4182;SDS011;2105;52.300;9.182;2022-12-07T14:01:08;18.17;;;11.17;;
4182;SDS011;2105;52.300;9.182;2022-12-07T14:03:36;13.77;;;11.00;;
4182;SDS011;2105;52.300;9.182;2022-12-07T14:06:05;11.57;;;10.43;;
4182;SDS011;2105;52.300;9.182;2022-12-07T14:08:33;16.40;;;10.67;;
4182;SDS011;2105;52.300;9.182;2022-12-07T14:11:00;15.00;;;10.80;;
4182;SDS011;2105;52.300;9.182;2022-12-07T14:13:29;15.00;;;10.83;;
4182;SDS011;2105;52.300;9.182;2022-12-07T14:16:01;18.90;;;10.77;;
4182;SDS011;2105;52.300;9.182;2022-12-07T14:18:30;11.43;;;10.27;;
4182;SDS011;2105;52.300;9.182;2022-12-07T14:21:04;11.43;;;10.23;;
4182;SDS011;2105;52.300;9.182;2022-12-07T14:23:32;14.40;;;9.77;;
4182;SDS011;2105;52.300;9.182;2022-12-07T14:26:06;14.93;;;10.27;;
4182;SDS011;2105;52.300;9.182;2022-12-07T14:28:38;42.57;;;11.47;;
4182;SDS011;2105;52.300;9.182;2022-12-07T14:31:10;10.63;;;9.83;;
4182;SDS011;2105;52.300;9.182;2022-12-07T14:33:38;11.77;;;9.73;;
4182;SDS011;2105;52.300;9.182;2022-12-07T14:36:05;14.17;;;9.90;;
4182;SDS011;2105;52.300;9.182;2022-12-07T14:38:34;15.00;;;9.93;;
4182;SDS011;2105;52.300;9.182;2022-12-07T14:41:02;12.77;;;10.10;;
4182;SDS011;2105;52.300;9.182;2022-12-07T14:43:47;11.13;;;10.13;;
4182;SDS011;2105;52.300;9.182;2022-12-07T14:46:16;13.10;;;10.40;;
4182;SDS011;2105;52.300;9.182;2022-12-07T14:48:43;19.37;;;10.13;;
4182;SDS011;2105;52.300;9.182;2022-12-07T14:51:13;15.50;;;10.70;;
4182;SDS011;2105;52.300;9.182;2022-12-07T14:53:41;10.77;;;9.87;;
4182;SDS011;2105;52.300;9.182;2022-12-07T14:56:10;13.83;;;10.00;;
4182;SDS011;2105;52.300;9.182;2022-12-07T14:58:37;15.37;;;10.47;;
4182;SDS011;2105;52.300;9.182;2022-12-07T15:01:06;15.37;;;10.07;;
4182;SDS011;2105;52.300;9.182;2022-12-07T15:03:35;10.73;;;9.80;;
4182;SDS011;2105;52.300;9.182;2022-12-07T15:06:04;11.37;;;10.30;;
4182;SDS011;2105;52.300;9.182;2022-12-07T15:08:31;16.67;;;10.40;;
4182;SDS011;2105;52.300;9.182;2022-12-07T15:10:59;14.70;;;10.60;;
4182;SDS011;2105;52.300;9.182;2022-12-07T15:13:26;11.73;;;10.27;;
4182;SDS011;2105;52.300;9.182;2022-12-07T15:16:18;15.43;;;11.17;;
4182;SDS011;2105;52.300;9.182;2022-12-07T15:18:48;14.50;;;11.07;;
4182;SDS011;2105;52.300;9.182;2022-12-07T15:21:15;18.03;;;10.93;;
4182;SDS011;2105;52.300;9.182;2022-12-07T15:23:42;13.00;;;10.80;;
4182;SDS011;2105;52.300;9.182;2022-12-07T15:26:10;16.37;;;10.90;;
4182;SDS011;2105;52.300;9.182;2022-12-07T15:28:37;16.27;;;11.47;;
4182;SDS011;2105;52.300;9.182;2022-12-07T15:31:04;17.47;;;11.47;;
4182;SDS011;2105;52.300;9.182;2022-12-07T15:33:36;13.67;;;10.77;;
4182;SDS011;2105;52.300;9.182;2022-12-07T15:36:04;18.60;;;10.83;;
4182;SDS011;2105;52.300;9.182;2022-12-07T15:38:32;23.77;;;11.27;;
4182;SDS011;2105;52.300;9.182;2022-12-07T15:40:59;18.80;;;11.70;;
4182;SDS011;2105;52.300;9.182;2022-12-07T15:43:26;20.17;;;11.30;;
4182;SDS011;2105;52.300;9.182;2022-12-07T15:46:10;13.23;;;11.00;;
4182;SDS011;2105;52.300;9.182;2022-12-07T15:48:37;12.40;;;11.03;;
4182;SDS011;2105;52.300;9.182;2022-12-07T15:51:08;21.20;;;12.20;;
4182;SDS011;2105;52.300;9.182;2022-12-07T15:53:37;17.93;;;11.90;;
4182;SDS011;2105;52.300;9.182;2022-12-07T15:56:07;19.33;;;11.90;;
4182;SDS011;2105;52.300;9.182;2022-12-07T15:58:34;14.17;;;11.27;;